sensor_id;sensor_type;location;lat;lon;timestamp;temperature;humidity
18047;DHT22;9148;51.454;13.862;2023-06-26T00:02:00;18.30;99.90
18047;DHT22;9148;51.454;13.862;2023-06-26T00:04:26;18.30;99.90
18047;DHT22;9148;51.454;13.862;2023-06-26T00:06:52;18.20;99.90
18047;DHT22;9148;51.454;13.862;2023-06-26T00:09:17;18.20;99.90
18047;DHT22;9148;51.454;13.862;2023-06-26T00:11:46;18.20;99.90
18047;DHT22;9148;51.454;13.862;2023-06-26T00:14:11;18.10;99.90
18047;DHT22;9148;51.454;13.862;2023-06-26T00:16:37;18.00;99.90
18047;DHT22;9148;51.454;13.862;2023-06-26T00:19:03;18.00;99.90
18047;DHT22;9148;51.454;13.862;2023-06-26T00:21:28;18.00;99.90
18047;DHT22;9148;51.454;13.862;2023-06-26T00:23:54;17.90;99.90
18047;DHT22;9148;51.454;13.862;2023-06-26T00:26:20;17.90;99.90
18047;DHT22;9148;51.454;13.862;2023-06-26T00:28:45;17.90;99.90
18047;DHT22;9148;51.454;13.862;2023-06-26T00:31:11;17.80;99.90
18047;DHT22;9148;51.454;13.862;2023-06-26T00:33:37;17.80;99.90
18047;DHT22;9148;51.454;13.862;2023-06-26T00:36:02;17.80;99.90
18047;DHT22;9148;51.454;13.862;2023-06-26T00:38:28;17.80;99.90
18047;DHT22;9148;51.454;13.862;2023-06-26T00:40:54;17.70;99.90
18047;DHT22;9148;51.454;13.862;2023-06-26T00:43:20;17.80;99.90
18047;DHT22;9148;51.454;13.862;2023-06-26T00:45:45;17.80;99.90
18047;DHT22;9148;51.454;13.862;2023-06-26T00:48:14;17.70;99.90
18047;DHT22;9148;51.454;13.862;2023-06-26T00:50:41;17.70;99.90
18047;DHT22;9148;51.454;13.862;2023-06-26T00:53:09;17.70;99.90
18047;DHT22;9148;51.454;13.862;2023-06-26T00:55:36;17.60;99.90
18047;DHT22;9148;51.454;13.862;2023-06-26T00:58:02;17.50;99.90
18047;DHT22;9148;51.454;13.862;2023-06-26T01:00:27;17.40;99.90
18047;DHT22;9148;51.454;13.862;2023-06-26T01:02:54;17.40;99.90
18047;DHT22;9148;51.454;13.862;2023-06-26T01:05:25;17.40;99.90
18047;DHT22;9148;51.454;13.862;2023-06-26T01:07:51;17.30;99.90
18047;DHT22;9148;51.454;13.862;2023-06-26T01:10:17;17.30;99.90
18047;DHT22;9148;51.454;13.862;2023-06-26T01:12:43;17.30;99.90
18047;DHT22;9148;51.454;13.862;2023-06-26T01:15:10;17.20;99.90
18047;DHT22;9148;51.454;13.862;2023-06-26T01:17:37;17.20;99.90
18047;DHT22;9148;51.454;13.862;2023-06-26T01:20:05;17.10;99.90
18047;DHT22;9148;51.454;13.862;2023-06-26T01:22:56;17.10;99.90
18047;DHT22;9148;51.454;13.862;2023-06-26T01:26:21;17.00;99.90
18047;DHT22;9148;51.454;13.862;2023-06-26T01:28:49;17.00;99.90
18047;DHT22;9148;51.454;13.862;2023-06-26T01:31:16;17.00;99.90
18047;DHT22;9148;51.454;13.862;2023-06-26T01:33:43;17.00;99.90
18047;DHT22;9148;51.454;13.862;2023-06-26T01:36:09;16.90;99.90
18047;DHT22;9148;51.454;13.862;2023-06-26T01:38:35;16.90;99.90
18047;DHT22;9148;51.454;13.862;2023-06-26T01:41:02;17.00;99.90
18047;DHT22;9148;51.454;13.862;2023-06-26T01:43:43;16.90;99.90
18047;DHT22;9148;51.454;13.862;2023-06-26T01:49:47;16.90;99.90
18047;DHT22;9148;51.454;13.862;2023-06-26T01:52:25;16.80;99.90
18047;DHT22;9148;51.454;13.862;2023-06-26T01:55:17;16.80;99.90
18047;DHT22;9148;51.454;13.862;2023-06-26T01:57:48;16.80;99.90
18047;DHT22;9148;51.454;13.862;2023-06-26T02:00:15;16.70;99.90
18047;DHT22;9148;51.454;13.862;2023-06-26T02:02:43;16.70;99.90
18047;DHT22;9148;51.454;13.862;2023-06-26T02:05:10;16.70;99.90
18047;DHT22;9148;51.454;13.862;2023-06-26T02:07:35;16.70;99.90
18047;DHT22;9148;51.454;13.862;2023-06-26T02:10:02;16.60;99.90
18047;DHT22;9148;51.454;13.862;2023-06-26T02:12:28;16.60;99.90
18047;DHT22;9148;51.454;13.862;2023-06-26T02:14:53;16.60;99.90
18047;DHT22;9148;51.454;13.862;2023-06-26T02:17:19;16.60;99.90
18047;DHT22;9148;51.454;13.862;2023-06-26T02:19:45;16.60;99.90
18047;DHT22;9148;51.454;13.862;2023-06-26T02:22:13;16.60;99.90
18047;DHT22;9148;51.454;13.862;2023-06-26T02:24:40;16.60;99.90
18047;DHT22;9148;51.454;13.862;2023-06-26T02:27:06;16.60;99.90
18047;DHT22;9148;51.454;13.862;2023-06-26T02:29:32;16.50;99.90
18047;DHT22;9148;51.454;13.862;2023-06-26T02:31:58;16.50;99.90
18047;DHT22;9148;51.454;13.862;2023-06-26T02:34:23;16.50;99.90
18047;DHT22;9148;51.454;13.862;2023-06-26T02:36:49;16.40;99.90
18047;DHT22;9148;51.454;13.862;2023-06-26T02:39:15;16.40;99.90
18047;DHT22;9148;51.454;13.862;2023-06-26T02:41:40;16.30;99.90
18047;DHT22;9148;51.454;13.862;2023-06-26T02:44:12;16.30;99.90
18047;DHT22;9148;51.454;13.862;2023-06-26T02:46:39;16.30;99.90
18047;DHT22;9148;51.454;13.862;2023-06-26T02:49:06;16.20;99.90
18047;DHT22;9148;51.454;13.862;2023-06-26T02:51:33;16.20;99.90
18047;DHT22;9148;51.454;13.862;2023-06-26T02:53:58;16.20;99.90
18047;DHT22;9148;51.454;13.862;2023-06-26T02:56:24;16.10;99.90
18047;DHT22;9148;51.454;13.862;2023-06-26T02:58:54;16.10;99.90
18047;DHT22;9148;51.454;13.862;2023-06-26T03:01:20;16.10;99.90
18047;DHT22;9148;51.454;13.862;2023-06-26T03:03:46;16.10;99.90
18047;DHT22;9148;51.454;13.862;2023-06-26T03:06:12;16.00;99.90
18047;DHT22;9148;51.454;13.862;2023-06-26T03:08:39;16.10;99.90
18047;DHT22;9148;51.454;13.862;2023-06-26T03:11:06;16.10;99.90
18047;DHT22;9148;51.454;13.862;2023-06-26T03:13:35;16.10;99.90
18047;DHT22;9148;51.454;13.862;2023-06-26T03:16:02;16.10;99.90
18047;DHT22;9148;51.454;13.862;2023-06-26T03:18:28;16.10;99.90
18047;DHT22;9148;51.454;13.862;2023-06-26T03:20:55;16.10;99.90
18047;DHT22;9148;51.454;13.862;2023-06-26T03:23:21;16.10;99.90
18047;DHT22;9148;51.454;13.862;2023-06-26T03:25:48;16.10;99.90
18047;DHT22;9148;51.454;13.862;2023-06-26T03:28:14;16.10;99.90
18047;DHT22;9148;51.454;13.862;2023-06-26T03:30:40;16.10;99.90
18047;DHT22;9148;51.454;13.862;2023-06-26T03:33:05;16.00;99.90
18047;DHT22;9148;51.454;13.862;2023-06-26T03:35:31;16.00;99.90
18047;DHT22;9148;51.454;13.862;2023-06-26T03:37:58;16.00;99.90
18047;DHT22;9148;51.454;13.862;2023-06-26T03:40:24;16.00;99.90
18047;DHT22;9148;51.454;13.862;2023-06-26T03:42:49;16.00;99.90
18047;DHT22;9148;51.454;13.862;2023-06-26T03:45:15;16.00;99.90
18047;DHT22;9148;51.454;13.862;2023-06-26T03:47:41;15.90;99.90
18047;DHT22;9148;51.454;13.862;2023-06-26T03:50:07;15.90;99.90
18047;DHT22;9148;51.454;13.862;2023-06-26T03:52:33;15.90;99.90
18047;DHT22;9148;51.454;13.862;2023-06-26T03:54:58;15.90;99.90
18047;DHT22;9148;51.454;13.862;2023-06-26T03:57:25;15.90;99.90
18047;DHT22;9148;51.454;13.862;2023-06-26T03:59:52;15.90;99.90
18047;DHT22;9148;51.454;13.862;2023-06-26T04:02:18;15.90;99.90
18047;DHT22;9148;51.454;13.862;2023-06-26T04:04:43;15.90;99.90
18047;DHT22;9148;51.454;13.862;2023-06-26T04:07:10;16.00;99.90
18047;DHT22;9148;51.454;13.862;2023-06-26T04:09:35;16.10;99.90
18047;DHT22;9148;51.454;13.862;2023-06-26T04:12:01;16.10;99.90
18047;DHT22;9148;51.454;13.862;2023-06-26T04:14:27;16.20;99.90
18047;DHT22;9148;51.454;13.862;2023-06-26T04:16:53;16.30;99.90
18047;DHT22;9148;51.454;13.862;2023-06-26T04:19:19;16.40;99.90
18047;DHT22;9148;51.454;13.862;2023-06-26T04:21:45;16.50;99.90
18047;DHT22;9148;51.454;13.862;2023-06-26T04:24:10;16.60;99.90
18047;DHT22;9148;51.454;13.862;2023-06-26T04:26:36;16.70;99.90
18047;DHT22;9148;51.454;13.862;2023-06-26T04:29:02;16.80;99.90
18047;DHT22;9148;51.454;13.862;2023-06-26T04:31:28;16.90;99.90
18047;DHT22;9148;51.454;13.862;2023-06-26T04:33:54;17.10;99.90
18047;DHT22;9148;51.454;13.862;2023-06-26T04:36:21;17.20;99.90
18047;DHT22;9148;51.454;13.862;2023-06-26T04:38:46;17.40;99.90
18047;DHT22;9148;51.454;13.862;2023-06-26T04:41:15;17.50;99.90
18047;DHT22;9148;51.454;13.862;2023-06-26T04:43:40;17.70;99.90
18047;DHT22;9148;51.454;13.862;2023-06-26T04:46:06;17.90;99.90
18047;DHT22;9148;51.454;13.862;2023-06-26T04:48:32;18.10;99.90
18047;DHT22;9148;51.454;13.862;2023-06-26T04:50:58;18.30;99.90
18047;DHT22;9148;51.454;13.862;2023-06-26T04:53:24;18.50;99.90
18047;DHT22;9148;51.454;13.862;2023-06-26T04:55:51;18.70;99.90
18047;DHT22;9148;51.454;13.862;2023-06-26T04:58:18;19.00;99.90
18047;DHT22;9148;51.454;13.862;2023-06-26T05:00:44;19.20;99.90
18047;DHT22;9148;51.454;13.862;2023-06-26T05:03:11;19.40;99.90
18047;DHT22;9148;51.454;13.862;2023-06-26T05:05:39;19.60;99.90
18047;DHT22;9148;51.454;13.862;2023-06-26T05:08:21;19.80;99.90
18047;DHT22;9148;51.454;13.862;2023-06-26T05:10:49;20.00;99.90
18047;DHT22;9148;51.454;13.862;2023-06-26T05:13:15;20.20;99.90
18047;DHT22;9148;51.454;13.862;2023-06-26T05:15:52;20.40;99.90
18047;DHT22;9148;51.454;13.862;2023-06-26T05:18:18;20.60;99.90
18047;DHT22;9148;51.454;13.862;2023-06-26T05:20:44;20.80;99.90
18047;DHT22;9148;51.454;13.862;2023-06-26T05:23:14;21.10;99.90
18047;DHT22;9148;51.454;13.862;2023-06-26T05:25:41;21.20;99.90
18047;DHT22;9148;51.454;13.862;2023-06-26T05:28:07;21.40;99.90
18047;DHT22;9148;51.454;13.862;2023-06-26T05:30:36;21.60;99.90
18047;DHT22;9148;51.454;13.862;2023-06-26T05:33:02;21.70;99.90
18047;DHT22;9148;51.454;13.862;2023-06-26T05:35:29;21.90;99.90
18047;DHT22;9148;51.454;13.862;2023-06-26T05:37:56;22.20;99.90
18047;DHT22;9148;51.454;13.862;2023-06-26T05:40:22;22.30;99.90
18047;DHT22;9148;51.454;13.862;2023-06-26T05:42:49;22.50;99.90
18047;DHT22;9148;51.454;13.862;2023-06-26T05:45:15;22.70;99.90
18047;DHT22;9148;51.454;13.862;2023-06-26T05:47:41;22.80;99.90
18047;DHT22;9148;51.454;13.862;2023-06-26T05:50:09;23.00;99.90
18047;DHT22;9148;51.454;13.862;2023-06-26T05:52:35;23.10;99.90
18047;DHT22;9148;51.454;13.862;2023-06-26T05:55:02;23.30;99.90
18047;DHT22;9148;51.454;13.862;2023-06-26T05:57:29;23.40;99.90
18047;DHT22;9148;51.454;13.862;2023-06-26T05:59:56;23.40;99.90
18047;DHT22;9148;51.454;13.862;2023-06-26T06:02:22;23.60;99.90
18047;DHT22;9148;51.454;13.862;2023-06-26T06:04:48;23.70;99.90
18047;DHT22;9148;51.454;13.862;2023-06-26T06:07:14;23.90;99.90
18047;DHT22;9148;51.454;13.862;2023-06-26T06:09:40;24.10;99.60
18047;DHT22;9148;51.454;13.862;2023-06-26T06:12:06;24.30;99.20
18047;DHT22;9148;51.454;13.862;2023-06-26T06:14:33;24.50;98.80
18047;DHT22;9148;51.454;13.862;2023-06-26T06:16:59;24.70;98.30
18047;DHT22;9148;51.454;13.862;2023-06-26T06:19:25;24.90;97.70
18047;DHT22;9148;51.454;13.862;2023-06-26T06:21:51;25.00;96.80
18047;DHT22;9148;51.454;13.862;2023-06-26T06:24:16;25.20;96.40
18047;DHT22;9148;51.454;13.862;2023-06-26T06:26:42;25.40;96.00
18047;DHT22;9148;51.454;13.862;2023-06-26T06:29:08;25.60;95.50
18047;DHT22;9148;51.454;13.862;2023-06-26T06:31:34;25.80;94.90
18047;DHT22;9148;51.454;13.862;2023-06-26T06:34:00;25.90;94.70
18047;DHT22;9148;51.454;13.862;2023-06-26T06:36:25;26.20;93.70
18047;DHT22;9148;51.454;13.862;2023-06-26T06:38:51;26.30;93.60
18047;DHT22;9148;51.454;13.862;2023-06-26T06:41:17;26.50;93.20
18047;DHT22;9148;51.454;13.862;2023-06-26T06:43:43;26.70;92.00
18047;DHT22;9148;51.454;13.862;2023-06-26T06:46:09;26.80;91.20
18047;DHT22;9148;51.454;13.862;2023-06-26T06:48:34;27.00;90.40
18047;DHT22;9148;51.454;13.862;2023-06-26T06:51:00;27.00;88.90
18047;DHT22;9148;51.454;13.862;2023-06-26T06:53:26;27.10;87.50
18047;DHT22;9148;51.454;13.862;2023-06-26T06:55:52;27.20;86.30
18047;DHT22;9148;51.454;13.862;2023-06-26T06:58:18;27.30;86.00
18047;DHT22;9148;51.454;13.862;2023-06-26T07:00:46;27.50;85.50
18047;DHT22;9148;51.454;13.862;2023-06-26T07:03:12;27.70;83.50
18047;DHT22;9148;51.454;13.862;2023-06-26T07:05:38;27.80;82.60
18047;DHT22;9148;51.454;13.862;2023-06-26T07:08:04;27.90;79.70
18047;DHT22;9148;51.454;13.862;2023-06-26T07:10:29;28.00;77.50
18047;DHT22;9148;51.454;13.862;2023-06-26T07:12:55;28.00;76.50
18047;DHT22;9148;51.454;13.862;2023-06-26T07:15:21;27.90;76.80
18047;DHT22;9148;51.454;13.862;2023-06-26T07:17:47;28.10;76.10
18047;DHT22;9148;51.454;13.862;2023-06-26T07:20:12;28.30;76.60
18047;DHT22;9148;51.454;13.862;2023-06-26T07:22:41;28.40;74.30
18047;DHT22;9148;51.454;13.862;2023-06-26T07:25:08;28.50;73.70
18047;DHT22;9148;51.454;13.862;2023-06-26T07:27:40;28.70;73.40
18047;DHT22;9148;51.454;13.862;2023-06-26T07:30:07;28.90;72.00
18047;DHT22;9148;51.454;13.862;2023-06-26T07:32:34;29.00;69.40
18047;DHT22;9148;51.454;13.862;2023-06-26T07:35:00;29.10;69.10
18047;DHT22;9148;51.454;13.862;2023-06-26T07:37:26;29.10;68.60
18047;DHT22;9148;51.454;13.862;2023-06-26T07:39:51;29.30;68.20
18047;DHT22;9148;51.454;13.862;2023-06-26T07:42:17;29.50;67.90
18047;DHT22;9148;51.454;13.862;2023-06-26T07:44:43;29.60;66.90
18047;DHT22;9148;51.454;13.862;2023-06-26T07:47:09;29.70;66.10
18047;DHT22;9148;51.454;13.862;2023-06-26T07:49:34;29.80;64.50
18047;DHT22;9148;51.454;13.862;2023-06-26T07:52:00;29.90;63.90
18047;DHT22;9148;51.454;13.862;2023-06-26T07:54:26;29.90;64.30
18047;DHT22;9148;51.454;13.862;2023-06-26T07:57:00;30.20;64.80
18047;DHT22;9148;51.454;13.862;2023-06-26T07:59:29;30.50;64.50
18047;DHT22;9148;51.454;13.862;2023-06-26T08:01:55;30.80;62.60
18047;DHT22;9148;51.454;13.862;2023-06-26T08:04:24;31.00;60.00
18047;DHT22;9148;51.454;13.862;2023-06-26T08:06:53;31.30;59.50
18047;DHT22;9148;51.454;13.862;2023-06-26T08:09:21;31.30;57.90
18047;DHT22;9148;51.454;13.862;2023-06-26T08:11:48;31.40;57.00
18047;DHT22;9148;51.454;13.862;2023-06-26T08:14:15;31.40;57.30
18047;DHT22;9148;51.454;13.862;2023-06-26T08:16:42;31.50;57.00
18047;DHT22;9148;51.454;13.862;2023-06-26T08:19:09;31.60;54.90
18047;DHT22;9148;51.454;13.862;2023-06-26T08:21:35;31.60;52.70
18047;DHT22;9148;51.454;13.862;2023-06-26T08:24:01;31.60;52.60
18047;DHT22;9148;51.454;13.862;2023-06-26T08:26:27;31.50;52.40
18047;DHT22;9148;51.454;13.862;2023-06-26T08:28:59;31.50;52.80
18047;DHT22;9148;51.454;13.862;2023-06-26T08:31:25;31.60;51.90
18047;DHT22;9148;51.454;13.862;2023-06-26T08:33:51;31.60;51.00
18047;DHT22;9148;51.454;13.862;2023-06-26T08:36:16;31.50;50.60
18047;DHT22;9148;51.454;13.862;2023-06-26T08:38:42;31.40;51.00
18047;DHT22;9148;51.454;13.862;2023-06-26T08:41:17;31.50;51.60
18047;DHT22;9148;51.454;13.862;2023-06-26T08:43:43;31.60;52.20
18047;DHT22;9148;51.454;13.862;2023-06-26T08:46:08;31.90;51.70
18047;DHT22;9148;51.454;13.862;2023-06-26T08:48:35;32.20;50.20
18047;DHT22;9148;51.454;13.862;2023-06-26T08:51:09;32.20;50.20
18047;DHT22;9148;51.454;13.862;2023-06-26T08:53:57;32.40;50.60
18047;DHT22;9148;51.454;13.862;2023-06-26T08:56:26;32.60;50.60
18047;DHT22;9148;51.454;13.862;2023-06-26T08:59:04;32.80;48.50
18047;DHT22;9148;51.454;13.862;2023-06-26T09:01:31;32.80;47.60
18047;DHT22;9148;51.454;13.862;2023-06-26T09:03:57;32.80;47.10
18047;DHT22;9148;51.454;13.862;2023-06-26T09:06:22;32.70;47.90
18047;DHT22;9148;51.454;13.862;2023-06-26T09:08:48;32.80;47.60
18047;DHT22;9148;51.454;13.862;2023-06-26T09:11:14;32.90;47.10
18047;DHT22;9148;51.454;13.862;2023-06-26T09:13:40;33.00;46.30
18047;DHT22;9148;51.454;13.862;2023-06-26T09:16:07;33.00;46.10
18047;DHT22;9148;51.454;13.862;2023-06-26T09:18:33;33.10;46.30
18047;DHT22;9148;51.454;13.862;2023-06-26T09:20:59;33.10;45.40
18047;DHT22;9148;51.454;13.862;2023-06-26T09:23:26;33.00;45.60
18047;DHT22;9148;51.454;13.862;2023-06-26T09:25:52;33.10;45.30
18047;DHT22;9148;51.454;13.862;2023-06-26T09:28:17;33.00;45.40
18047;DHT22;9148;51.454;13.862;2023-06-26T09:30:44;33.10;45.30
18047;DHT22;9148;51.454;13.862;2023-06-26T09:33:15;33.20;45.20
18047;DHT22;9148;51.454;13.862;2023-06-26T09:35:45;33.00;45.30
18047;DHT22;9148;51.454;13.862;2023-06-26T09:38:12;33.00;45.80
18047;DHT22;9148;51.454;13.862;2023-06-26T09:40:38;33.00;45.50
18047;DHT22;9148;51.454;13.862;2023-06-26T09:43:06;33.00;45.30
18047;DHT22;9148;51.454;13.862;2023-06-26T09:45:34;33.00;44.80
18047;DHT22;9148;51.454;13.862;2023-06-26T09:48:02;33.00;45.10
18047;DHT22;9148;51.454;13.862;2023-06-26T09:50:29;33.00;45.30
18047;DHT22;9148;51.454;13.862;2023-06-26T09:52:55;33.10;44.90
18047;DHT22;9148;51.454;13.862;2023-06-26T09:55:21;33.00;45.10
18047;DHT22;9148;51.454;13.862;2023-06-26T09:57:49;33.30;44.80
18047;DHT22;9148;51.454;13.862;2023-06-26T10:00:16;33.40;44.20
18047;DHT22;9148;51.454;13.862;2023-06-26T10:02:42;33.40;44.00
18047;DHT22;9148;51.454;13.862;2023-06-26T10:05:07;33.40;44.50
18047;DHT22;9148;51.454;13.862;2023-06-26T10:07:35;33.50;44.90
18047;DHT22;9148;51.454;13.862;2023-06-26T10:10:02;33.60;44.00
18047;DHT22;9148;51.454;13.862;2023-06-26T10:12:30;33.60;44.00
18047;DHT22;9148;51.454;13.862;2023-06-26T10:14:57;33.60;43.90
18047;DHT22;9148;51.454;13.862;2023-06-26T10:17:27;33.60;44.00
18047;DHT22;9148;51.454;13.862;2023-06-26T10:19:55;33.70;44.00
18047;DHT22;9148;51.454;13.862;2023-06-26T10:22:27;33.80;43.90
18047;DHT22;9148;51.454;13.862;2023-06-26T10:24:55;33.90;44.00
18047;DHT22;9148;51.454;13.862;2023-06-26T10:27:25;34.20;44.60
18047;DHT22;9148;51.454;13.862;2023-06-26T10:29:55;34.40;42.70
18047;DHT22;9148;51.454;13.862;2023-06-26T10:32:25;34.50;41.60
18047;DHT22;9148;51.454;13.862;2023-06-26T10:34:52;34.40;41.90
18047;DHT22;9148;51.454;13.862;2023-06-26T10:37:18;34.30;41.40
18047;DHT22;9148;51.454;13.862;2023-06-26T10:39:52;34.50;41.40
18047;DHT22;9148;51.454;13.862;2023-06-26T10:42:33;34.60;41.70
18047;DHT22;9148;51.454;13.862;2023-06-26T10:45:09;34.80;41.20
18047;DHT22;9148;51.454;13.862;2023-06-26T10:47:40;34.70;40.20
18047;DHT22;9148;51.454;13.862;2023-06-26T10:50:28;34.70;41.00
18047;DHT22;9148;51.454;13.862;2023-06-26T10:53:12;34.60;41.20
18047;DHT22;9148;51.454;13.862;2023-06-26T10:55:49;34.60;41.70
18047;DHT22;9148;51.454;13.862;2023-06-26T10:58:27;34.90;41.90
18047;DHT22;9148;51.454;13.862;2023-06-26T11:01:18;35.20;41.20
18047;DHT22;9148;51.454;13.862;2023-06-26T11:03:48;35.50;40.40
18047;DHT22;9148;51.454;13.862;2023-06-26T11:06:16;35.60;39.70
18047;DHT22;9148;51.454;13.862;2023-06-26T11:08:55;35.80;40.40
18047;DHT22;9148;51.454;13.862;2023-06-26T11:11:55;36.20;40.20
18047;DHT22;9148;51.454;13.862;2023-06-26T11:14:25;36.70;40.00
18047;DHT22;9148;51.454;13.862;2023-06-26T11:16:52;37.00;38.90
18047;DHT22;9148;51.454;13.862;2023-06-26T11:19:19;37.20;38.50
18047;DHT22;9148;51.454;13.862;2023-06-26T11:21:44;37.10;37.00
18047;DHT22;9148;51.454;13.862;2023-06-26T11:24:12;36.90;37.30
18047;DHT22;9148;51.454;13.862;2023-06-26T11:26:39;36.70;37.80
18047;DHT22;9148;51.454;13.862;2023-06-26T11:29:06;36.60;38.80
18047;DHT22;9148;51.454;13.862;2023-06-26T11:31:34;36.90;39.00
18047;DHT22;9148;51.454;13.862;2023-06-26T11:34:03;37.30;38.70
18047;DHT22;9148;51.454;13.862;2023-06-26T11:36:30;37.70;38.60
18047;DHT22;9148;51.454;13.862;2023-06-26T11:38:57;37.90;38.00
18047;DHT22;9148;51.454;13.862;2023-06-26T11:41:31;37.90;37.70
18047;DHT22;9148;51.454;13.862;2023-06-26T11:44:05;38.20;37.70
18047;DHT22;9148;51.454;13.862;2023-06-26T11:46:33;38.40;37.00
18047;DHT22;9148;51.454;13.862;2023-06-26T11:49:00;38.50;36.40
18047;DHT22;9148;51.454;13.862;2023-06-26T11:51:28;38.30;36.10
18047;DHT22;9148;51.454;13.862;2023-06-26T11:53:54;38.10;36.50
18047;DHT22;9148;51.454;13.862;2023-06-26T11:56:20;37.80;35.70
18047;DHT22;9148;51.454;13.862;2023-06-26T11:59:07;37.70;36.70
18047;DHT22;9148;51.454;13.862;2023-06-26T12:01:44;37.90;37.10
18047;DHT22;9148;51.454;13.862;2023-06-26T12:04:12;38.10;37.30
18047;DHT22;9148;51.454;13.862;2023-06-26T12:06:40;38.00;36.90
18047;DHT22;9148;51.454;13.862;2023-06-26T12:09:09;37.80;36.30
18047;DHT22;9148;51.454;13.862;2023-06-26T12:11:48;37.60;36.10
18047;DHT22;9148;51.454;13.862;2023-06-26T12:14:16;37.60;36.30
18047;DHT22;9148;51.454;13.862;2023-06-26T12:16:43;37.50;36.20
18047;DHT22;9148;51.454;13.862;2023-06-26T12:19:09;37.40;36.40
18047;DHT22;9148;51.454;13.862;2023-06-26T12:24:04;37.10;36.00
18047;DHT22;9148;51.454;13.862;2023-06-26T12:26:31;36.70;36.00
18047;DHT22;9148;51.454;13.862;2023-06-26T12:29:12;36.10;36.40
18047;DHT22;9148;51.454;13.862;2023-06-26T12:31:44;35.70;37.00
18047;DHT22;9148;51.454;13.862;2023-06-26T12:34:15;35.50;37.70
18047;DHT22;9148;51.454;13.862;2023-06-26T12:36:46;35.50;38.40
18047;DHT22;9148;51.454;13.862;2023-06-26T12:39:18;35.80;38.50
18047;DHT22;9148;51.454;13.862;2023-06-26T12:41:48;36.30;38.80
18047;DHT22;9148;51.454;13.862;2023-06-26T12:44:21;36.80;38.10
18047;DHT22;9148;51.454;13.862;2023-06-26T12:46:55;37.10;36.20
18047;DHT22;9148;51.454;13.862;2023-06-26T12:49:33;37.20;35.30
18047;DHT22;9148;51.454;13.862;2023-06-26T12:52:01;37.20;35.30
18047;DHT22;9148;51.454;13.862;2023-06-26T12:54:28;37.30;35.70
18047;DHT22;9148;51.454;13.862;2023-06-26T12:56:54;37.40;35.80
18047;DHT22;9148;51.454;13.862;2023-06-26T12:59:20;37.30;35.20
18047;DHT22;9148;51.454;13.862;2023-06-26T13:01:47;37.30;35.60
18047;DHT22;9148;51.454;13.862;2023-06-26T13:04:13;37.30;35.50
18047;DHT22;9148;51.454;13.862;2023-06-26T13:06:39;37.30;35.60
18047;DHT22;9148;51.454;13.862;2023-06-26T13:09:05;37.30;35.70
18047;DHT22;9148;51.454;13.862;2023-06-26T13:11:31;37.30;34.50
18047;DHT22;9148;51.454;13.862;2023-06-26T13:13:58;37.20;34.80
18047;DHT22;9148;51.454;13.862;2023-06-26T13:16:24;37.40;35.10
18047;DHT22;9148;51.454;13.862;2023-06-26T13:18:50;37.60;35.50
18047;DHT22;9148;51.454;13.862;2023-06-26T13:21:16;37.90;35.70
18047;DHT22;9148;51.454;13.862;2023-06-26T13:23:43;38.10;35.20
18047;DHT22;9148;51.454;13.862;2023-06-26T13:26:10;38.20;35.60
18047;DHT22;9148;51.454;13.862;2023-06-26T13:28:36;38.40;34.70
18047;DHT22;9148;51.454;13.862;2023-06-26T13:31:03;38.30;34.20
18047;DHT22;9148;51.454;13.862;2023-06-26T13:33:30;38.10;33.80
18047;DHT22;9148;51.454;13.862;2023-06-26T13:35:56;37.80;34.10
18047;DHT22;9148;51.454;13.862;2023-06-26T13:38:23;37.40;34.50
18047;DHT22;9148;51.454;13.862;2023-06-26T13:40:55;37.10;34.90
18047;DHT22;9148;51.454;13.862;2023-06-26T13:43:26;36.80;35.10
18047;DHT22;9148;51.454;13.862;2023-06-26T13:45:52;36.60;35.70
18047;DHT22;9148;51.454;13.862;2023-06-26T13:48:19;36.50;35.90
18047;DHT22;9148;51.454;13.862;2023-06-26T13:50:45;36.60;35.60
18047;DHT22;9148;51.454;13.862;2023-06-26T13:53:12;36.60;35.70
18047;DHT22;9148;51.454;13.862;2023-06-26T13:55:40;36.50;34.40
18047;DHT22;9148;51.454;13.862;2023-06-26T13:58:07;36.30;34.80
18047;DHT22;9148;51.454;13.862;2023-06-26T14:00:34;36.00;35.10
18047;DHT22;9148;51.454;13.862;2023-06-26T14:03:01;35.80;36.00
18047;DHT22;9148;51.454;13.862;2023-06-26T14:05:29;35.60;36.00
18047;DHT22;9148;51.454;13.862;2023-06-26T14:08:04;35.50;36.50
18047;DHT22;9148;51.454;13.862;2023-06-26T14:10:30;35.40;36.60
18047;DHT22;9148;51.454;13.862;2023-06-26T14:12:56;35.40;36.40
18047;DHT22;9148;51.454;13.862;2023-06-26T14:15:22;35.30;36.50
18047;DHT22;9148;51.454;13.862;2023-06-26T14:17:47;35.20;36.90
18047;DHT22;9148;51.454;13.862;2023-06-26T14:20:15;35.20;37.10
18047;DHT22;9148;51.454;13.862;2023-06-26T14:22:42;35.00;37.10
18047;DHT22;9148;51.454;13.862;2023-06-26T14:25:12;34.90;37.40
18047;DHT22;9148;51.454;13.862;2023-06-26T14:27:38;34.80;37.30
18047;DHT22;9148;51.454;13.862;2023-06-26T14:30:04;34.50;37.80
18047;DHT22;9148;51.454;13.862;2023-06-26T14:32:31;34.40;38.00
18047;DHT22;9148;51.454;13.862;2023-06-26T14:34:57;34.30;38.60
18047;DHT22;9148;51.454;13.862;2023-06-26T14:37:23;34.20;38.80
18047;DHT22;9148;51.454;13.862;2023-06-26T14:39:49;34.10;39.20
18047;DHT22;9148;51.454;13.862;2023-06-26T14:42:15;33.80;38.90
18047;DHT22;9148;51.454;13.862;2023-06-26T14:44:41;33.70;39.10
18047;DHT22;9148;51.454;13.862;2023-06-26T14:47:07;33.70;39.50
18047;DHT22;9148;51.454;13.862;2023-06-26T14:49:32;33.70;39.60
18047;DHT22;9148;51.454;13.862;2023-06-26T14:51:58;33.80;39.40
18047;DHT22;9148;51.454;13.862;2023-06-26T14:54:25;34.00;39.40
18047;DHT22;9148;51.454;13.862;2023-06-26T14:56:50;34.00;38.80
18047;DHT22;9148;51.454;13.862;2023-06-26T14:59:16;34.10;38.50
18047;DHT22;9148;51.454;13.862;2023-06-26T15:01:42;34.20;38.80
18047;DHT22;9148;51.454;13.862;2023-06-26T15:04:07;34.20;38.70
18047;DHT22;9148;51.454;13.862;2023-06-26T15:06:34;34.30;38.50
18047;DHT22;9148;51.454;13.862;2023-06-26T15:09:00;34.20;37.80
18047;DHT22;9148;51.454;13.862;2023-06-26T15:11:27;34.10;38.20
18047;DHT22;9148;51.454;13.862;2023-06-26T15:13:52;34.10;38.20
18047;DHT22;9148;51.454;13.862;2023-06-26T15:16:18;34.00;37.60
18047;DHT22;9148;51.454;13.862;2023-06-26T15:18:44;34.00;37.90
18047;DHT22;9148;51.454;13.862;2023-06-26T15:21:10;33.90;37.90
18047;DHT22;9148;51.454;13.862;2023-06-26T15:23:35;33.60;38.40
18047;DHT22;9148;51.454;13.862;2023-06-26T15:26:01;33.50;38.60
18047;DHT22;9148;51.454;13.862;2023-06-26T15:28:27;33.30;38.70
18047;DHT22;9148;51.454;13.862;2023-06-26T15:30:53;33.00;39.00
18047;DHT22;9148;51.454;13.862;2023-06-26T15:33:18;32.90;39.30
18047;DHT22;9148;51.454;13.862;2023-06-26T15:35:44;32.70;39.60
18047;DHT22;9148;51.454;13.862;2023-06-26T15:38:10;32.70;40.10
18047;DHT22;9148;51.454;13.862;2023-06-26T15:40:36;32.50;40.30